Latest Coastal Weather Observations for Brisbane Airport

IDQ60701

Issued at 3:15 pm EST Saturday 29 November 2014 (issued every 10 minutes, with the page automatically refreshed every 10 minutes)

About coastal observations | Map of coastal stations | Coastal observations for QLD | Marine services | Other Formats
Station Details ID: 040842 Name: BRISBANE AERO Lat: -27.39 Lon: 153.13 Height: 4.51 m
Data from the previous 72 hours. | See also: Recent months at Brisbane Airport
Date/Time
EST
Temp

°C
Wind Pressure Rain
since 9am
mm
Weather Cloud Vis
km
Sea
Height
m
Swell
Dir
 
Speed
knots
Gust
knots
hPa Trend Height
m
Period
s
Dir
29/03:00pm 25.4 E 9 14 1016.9 R 0.0 Fine Mostly clear 30 - - - -
29/02:30pm 25.3 E 10 17 1017.3 - 0.0 - Mostly clear 10 - - - -
29/02:00pm 25.4 ESE 9 16 1017.3 - 0.0 - Partly cloudy 10 - - - -
29/01:30pm 25.5 ESE 9 14 1017.5 - 0.0 - Partly cloudy 10 - - - -
29/01:00pm 25.2 ESE 9 14 1017.7 - 0.0 - Mostly clear 10 - - - -
29/12:30pm 25.5 ESE 11 18 1017.9 - 0.0 - Mostly clear 10 - - - -
29/12:00pm 25.2 ESE 8 14 1018.2 R 0.0 Fine Partly cloudy 30 - - - -
29/11:30am 25.1 SE 9 15 1018.5 - 0.0 - Partly cloudy 10 - - - -
29/11:00am 24.9 ESE 10 17 1018.8 - 0.0 - Partly cloudy 10 - - - -
29/10:30am 25.2 ESE 9 16 1019.1 - 0.0 - Partly cloudy 10 - - - -
29/10:00am 24.7 SE 9 15 1019.3 - 0.0 - Partly cloudy 10 - - - -
29/09:30am 24.5 SE 10 17 1019.5 - 0.0 - Partly cloudy 10 - - - -
29/09:00am 24.6 ESE 9 15 1019.5 R 0.8 Fine Partly cloudy 30 - - - -
29/08:30am 24.2 ESE 10 16 1019.3 - 0.8 - Partly cloudy 10 - - - -
29/08:00am 23.4 SE 7 13 1019.3 - 0.8 - Partly cloudy 10 - - - -
29/07:30am 23.2 SE 6 8 1019.2 - 0.8 - Partly cloudy 10 - - - -
29/07:00am 23.2 SE 7 9 1019.0 - 0.8 - Mostly clear 10 - - - -
29/06:30am 22.0 SSE 6 9 1018.6 - 0.8 - Mostly clear 10 - - - -
29/06:00am 21.2 SSE 5 9 1018.2 F 0.8 Distant precip. Mostly cloudy 25 - - - -
29/05:30am 19.8 S 5 7 1018.0 - 0.8 - Mostly clear 10 - - - -
29/05:00am 19.7 S 6 8 1017.8 - 0.8 - Mostly clear 10 - - - -
29/04:30am 19.5 S 6 8 1017.5 - 0.8 - Mostly clear 10 - - - -
29/04:00am 19.8 S 5 8 1017.3 - 0.8 - Mostly clear 10 - - - -
29/03:30am 20.0 S 5 8 1017.3 - 0.8 - Mostly clear 10 - - - -
29/03:00am 19.9 SSW 5 7 1017.2 F 0.8 Distant precip. Mostly cloudy 16 - - - -
29/02:30am 20.1 S 5 6 1017.3 - 0.8 - Mostly clear 10 - - - -
29/02:00am 20.4 S 6 8 1017.5 - 0.8 - Mostly clear 10 - - - -
29/01:30am 21.6 E 6 9 1017.4 - 0.8 Showers Mostly clear 10 - - - -
29/01:00am 21.2 ESE 5 11 1017.8 - 0.8 Showers Mostly clear 10 - - - -
29/12:30am 20.4 SSE 5 8 1018.3 - 0.6 Showers Mostly clear 10 - - - -
29/12:00am 19.9 ESE 7 13 1019.2 R 0.6 Showers Mostly cloudy 8 - - - -
 
Date/Time
EST
Temp

°C
Wind Pressure Rain
since 9am
mm
Weather Cloud Vis
km
Sea
Height
m
Swell
Dir
 
Speed
knots
Gust
knots
hPa Trend Height
m
Period
s
Dir
28/11:30pm 21.2 ESE 8 16 1019.0 - 0.4 Showers Mostly clear 10 - - - -
28/11:00pm 22.8 E 7 11 1019.0 - 0.4 Showers Mostly clear 10 - - - -
28/10:30pm 22.7 E 7 9 1019.2 - 0.4 - Mostly clear 10 - - - -
28/10:00pm 22.7 E 7 12 1019.4 - 0.4 - Mostly clear 10 - - - -
28/09:30pm 22.8 E 9 14 1019.5 - 0.4 - Mostly clear 10 - - - -
28/09:00pm 22.8 E 8 13 1019.4 F 0.4 Fine Partly cloudy 30 - - - -
28/08:30pm 23.1 E 8 16 1019.3 - 0.4 - Mostly clear 10 - - - -
28/08:00pm 23.0 E 8 15 1019.1 - 0.4 - Mostly clear 10 - - - -
28/07:30pm 23.0 E 10 16 1018.8 - 0.4 - Mostly clear 10 - - - -
28/07:00pm 23.1 E 10 18 1018.6 - 0.4 - Mostly clear 10 - - - -
28/06:30pm 23.3 ESE 12 20 1018.6 - 0.4 - Mostly clear 10 - - - -
28/06:00pm 23.7 ESE 11 19 1018.3 F 0.4 Distant precip. Mostly cloudy 25 - - - -
28/05:30pm 23.7 ESE 12 18 1018.1 - 0.4 - Mostly clear 10 - - - -
28/05:00pm 24.1 ESE 13 19 1017.8 - 0.4 - Mostly clear 10 - - - -
28/04:30pm 24.3 ESE 13 21 1017.5 - 0.4 - Mostly clear 10 - - - -
28/04:00pm 24.3 ESE 12 19 1017.5 - 0.4 - Mostly clear 10 - - - -
28/03:30pm 24.5 SE 12 20 1017.6 - 0.4 - Mostly clear 10 - - - -
28/03:00pm 24.1 ESE 13 19 1017.8 R 0.4 Showers Mostly cloudy 18 - - - -
28/02:30pm 23.9 ESE 15 25 1017.7 - 0.4 Showers Mostly clear 10 - - - -
28/02:00pm 25.8 ESE 15 25 1017.9 - 0.4 - Mostly clear 10 - - - -
28/01:30pm 26.3 ESE 13 21 1018.1 - 0.4 Showers Mostly clear 10 - - - -
28/01:00pm 25.7 ESE 13 18 1018.1 - 0.4 - Mostly clear 10 - - - -
28/12:30pm 26.0 ESE 12 - 1018.0 - 0.4 - Mostly clear 10 - - - -
28/12:00pm 26.1 ESE 12 18 1018.5 R 0.4 Distant precip. Mostly cloudy 18 - - - -
28/11:30am 26.0 ESE 13 - 1018.0 - 0.4 - Mostly clear 10 - - - -
28/11:00am 26.4 ESE 11 21 1018.7 - 0.4 - Mostly clear 10 - - - -
28/10:30am 25.3 ESE 11 16 1018.6 - 0.4 Showers Mostly clear 10 - - - -
28/10:00am 26.1 ESE 11 17 1018.6 - 0.4 Showers Mostly clear 10 - - - -
28/09:30am 25.8 ESE 9 17 1018.6 - 0.4 Showers Mostly clear 10 - - - -
28/09:15am 24.3 ESE 9 15 1018.6 - 0.4 Showers Mostly clear 6 - - - -
28/09:00am 22.4 SE 8 14 1018.7 R 8.0 Showers Mostly cloudy 5 - - - -
28/08:57am 24.2 SE 8 12 1018.7 - 7.4 Showers Mostly clear 3 - - - -
28/08:30am 24.0 SE 8 12 1018.8 - 7.4 Showers Mostly clear 10 - - - -
28/08:00am 24.0 SE 7 13 1018.6 - 7.4 - Mostly clear 10 - - - -
28/07:30am 23.4 SE 7 12 1018.7 - 7.4 - Mostly clear 10 - - - -
28/07:00am 22.7 SSE 7 11 1018.4 - 7.4 Showers Mostly clear 6 - - - -
28/06:30am 21.5 SSE 8 12 1018.1 - 7.4 Showers Mostly clear 6 - - - -
28/06:00am 21.3 SSE 8 16 1017.8 R 7.4 Recent precip. Mostly cloudy 15 - - - -
28/05:30am 21.1 SSE 7 12 1017.6 - 7.4 - Mostly clear 9 - - - -
28/05:17am 20.8 SSE 10 15 1017.5 - 7.4 Showers Mostly clear 8 - - - -
28/05:00am 20.6 S 9 16 1017.4 - 7.4 Showers Mostly clear 6 - - - -
28/04:43am 20.6 S 10 19 1017.2 - 7.4 Showers Mostly clear 7 - - - -
28/04:37am 21.1 S 9 16 1017.2 - 7.2 Showers Mostly clear 3 - - - -
28/04:30am 21.2 S 9 15 1017.1 - 7.2 Drizzle Mostly clear 10 - - - -
28/04:00am 21.0 S 9 16 1016.6 - 7.2 - Mostly clear 10 - - - -
28/03:30am 21.2 S 8 15 1016.5 - 7.2 - Mostly clear 10 - - - -
28/03:00am 21.3 S 8 14 1016.5 R 7.2 Fine Mostly cloudy 30 - - - -
28/02:30am 21.3 SSE 7 13 1016.4 - 7.2 - Mostly clear 10 - - - -
28/02:00am 21.4 S 7 12 1016.2 - 7.2 - Mostly clear 10 - - - -
28/01:30am 21.7 S 8 15 1016.5 - 7.2 - Mostly clear 10 - - - -
28/01:00am 21.9 SSE 7 13 1016.6 - 7.2 - Mostly clear 10 - - - -
28/12:30am 22.2 S 7 11 1016.8 - 7.2 - Mostly clear 10 - - - -
28/12:00am 22.7 SE 7 12 1017.0 R 7.2 Distant precip. Mostly cloudy 30 - - - -
 
Date/Time
EST
Temp

°C
Wind Pressure Rain
since 9am
mm
Weather Cloud Vis
km
Sea
Height
m
Swell
Dir
 
Speed
knots
Gust
knots
hPa Trend Height
m
Period
s
Dir
27/11:30pm 22.6 SSE 4 8 1017.0 - 7.2 - Mostly clear 10 - - - -
27/11:00pm 22.9 SE 7 14 1017.2 - 7.2 - Mostly clear 10 - - - -
27/10:30pm 23.2 SE 9 14 1017.2 - 7.2 - Mostly clear 10 - - - -
27/10:00pm 23.7 SE 5 8 1017.5 - 7.2 - Mostly clear 10 - - - -
27/09:30pm 23.5 SE 7 10 1017.4 - 7.2 - Mostly clear 10 - - - -
27/09:00pm 24.0 SE 7 10 1017.1 F 7.2 Distant precip. Mostly cloudy 20 - - - -
27/08:30pm 23.6 S 7 11 1017.0 - 7.2 - Mostly clear 10 - - - -
27/08:00pm 23.6 SSE 6 8 1016.4 - 7.2 - Mostly clear 10 - - - -
27/07:30pm 23.7 SSE 6 10 1016.4 - 7.2 - Mostly clear 10 - - - -
27/07:00pm 24.2 SE 7 10 1016.5 - 7.2 Drizzle Mostly clear 10 - - - -
27/06:30pm 24.3 ESE 9 14 1015.8 - 7.2 Drizzle Mostly clear 10 - - - -
27/06:00pm 24.3 SE 9 15 1015.8 R 7.2 Drizzle Cloudy 16 - - - -
27/05:41pm 23.7 SSE 6 10 1015.6 - 7.2 Thunder Mostly clear 10 - - - -
27/05:30pm 22.5 S 6 8 1015.6 - 7.0 Thunderstorm Mostly clear 10 - - - -
27/05:20pm 22.2 SW 10 14 1015.8 - 6.8 Thunderstorm Mostly clear 10 - - - -
27/05:00pm 25.2 E 10 18 1014.8 - 2.4 Thunderstorm Mostly clear 2 - - - -
27/04:51pm 26.3 ENE 13 20 1013.8 - 0.0 Hailstorm Mostly clear 4 - - - -
27/04:40pm 27.0 NE 13 17 1012.9 - 0.0 Thunderstorm Mostly clear 10 - - - -
27/04:30pm 27.5 NNE 13 16 1012.8 - 0.0 - Mostly clear 10 - - - -
27/04:00pm 27.9 NNE 15 18 1012.8 - 0.0 - Mostly clear 10 - - - -
27/03:30pm 27.6 N 16 19 1012.5 - 0.0 - Mostly clear 10 - - - -
27/03:00pm 27.9 NNE 13 17 1012.3 F 0.0 Distant precip. Mostly clear 25 - - - -
27/02:30pm 28.2 NNE 13 16 1012.8 - 0.0 - Mostly clear 10 - - - -
27/02:00pm 28.7 NNE 13 16 1013.4 - 0.0 - Mostly clear 10 - - - -
27/01:30pm 28.8 NNE 12 16 1013.5 - 0.0 - Mostly clear 10 - - - -
27/01:00pm 28.6 NNE 15 17 1013.8 - 0.0 - Mostly clear 10 - - - -
27/12:30pm 29.0 NNE 15 17 1014.1 - 0.0 - Mostly clear 10 - - - -
27/12:00pm 28.5 NNE 14 17 1014.5 F 0.0 Fine Partly cloudy 25 - - - -
27/11:30am 29.1 NNE 13 16 1014.8 - 0.0 - Mostly clear 10 - - - -
27/11:00am 28.2 NNE 11 15 1015.2 - 0.0 - Mostly clear 10 - - - -
27/10:30am 28.2 NNE 11 14 1015.6 - 0.0 - Mostly clear 10 - - - -
27/10:00am 27.6 NNE 9 14 1015.8 - 0.0 - Mostly clear 10 - - - -
27/09:30am 27.7 NNE 9 11 1016.1 - 0.0 - Mostly clear 10 - - - -
27/09:00am 26.8 N 7 11 1016.4 F 0.0 Fine Mostly cloudy 25 - - - -
27/08:30am 26.3 N 7 10 1016.6 - 0.0 - Mostly clear 10 - - - -
27/08:00am 26.4 NNW 7 9 1016.7 - 0.0 - Mostly clear 10 - - - -
27/07:30am 25.5 NNW 6 9 1016.7 - 0.0 - Mostly clear 10 - - - -
27/07:00am 25.2 NW 5 7 1016.4 - 0.0 - Mostly clear 10 - - - -
27/06:30am 24.0 WNW 4 6 1016.2 - 0.0 - Mostly clear 10 - - - -
27/06:00am 23.9 NW 5 10 1016.0 R 0.0 Distant precip. Mostly cloudy 20 - - - -
27/05:30am 23.3 NW 5 6 1015.7 - 0.0 - Mostly clear 10 - - - -
27/05:00am 23.1 WNW 6 6 1015.7 - 0.0 - Mostly clear 10 - - - -
27/04:30am 23.0 NW 1 6 1015.4 - 0.0 - Mostly clear 10 - - - -
27/04:00am 23.0 CALM 0 0 1015.1 - 0.0 Drizzle Partly cloudy 10 - - - -
27/03:30am 23.0 NNE 1 4 1015.0 - 0.0 - Mostly clear 10 - - - -
27/03:00am 23.3 WNW 7 10 1014.8 F 0.0 Showers Partly cloudy 20 - - - -
27/02:30am 23.4 WSW 6 7 1015.2 - 0.0 - Partly cloudy 10 - - - -
27/02:00am 23.5 N 7 8 1014.9 - 0.0 - Partly cloudy 10 - - - -
27/01:30am 23.5 N 7 8 1015.3 - 0.0 - Mostly clear 10 - - - -
27/01:00am 23.7 N 7 9 1015.3 - 0.0 - Partly cloudy 10 - - - -
27/12:30am 23.9 N 7 9 1015.4 - 0.0 - Mostly clear 10 - - - -
27/12:00am 24.2 N 8 10 1015.9 F 0.0 Fine Mostly cloudy 30 - - - -
 
Date/Time
EST
Temp

°C
Wind Pressure Rain
since 9am
mm
Weather Cloud Vis
km
Sea
Height
m
Swell
Dir
 
Speed
knots
Gust
knots
hPa Trend Height
m
Period
s
Dir
26/11:30pm 24.0 N 10 13 1016.0 - 0.0 - Mostly clear 10 - - - -
26/11:00pm 23.5 N 7 9 1016.3 - 0.0 - Mostly clear 10 - - - -
26/10:30pm 23.5 NNE 8 10 1016.7 - 0.0 - Mostly clear 10 - - - -
26/10:00pm 23.2 NNE 6 7 1016.9 - 0.0 - Mostly clear 10 - - - -
26/09:30pm 23.5 NNE 4 5 1017.3 - 0.0 - Mostly clear 10 - - - -
26/09:00pm 24.1 N 3 6 1017.6 F 0.0 Fine Mostly cloudy 30 - - - -
26/08:30pm 24.2 N 6 8 1017.5 - 0.0 - Mostly clear 10 - - - -
26/08:00pm 24.4 NNE 4 5 1017.2 - 0.0 - Mostly clear 10 - - - -
26/07:30pm 24.8 NE 5 7 1017.0 - 0.0 - Mostly clear 10 - - - -
26/07:00pm 24.8 NE 5 7 1016.9 - 0.0 - Mostly clear 10 - - - -
26/06:30pm 25.2 NE 5 7 1016.7 - 0.0 - Mostly clear 10 - - - -
26/06:00pm 25.2 NE 7 9 1016.3 R 0.0 Fine Mostly cloudy 30 - - - -
26/05:30pm 25.6 NE 9 12 1015.9 - 0.0 - Mostly clear 10 - - - -
26/05:00pm 25.5 NNE 8 10 1015.3 - 0.0 - - 10 - - - -
26/04:30pm 26.1 NNE 9 13 1015.0 - 0.0 - Mostly clear 10 - - - -
26/04:00pm 26.3 N 12 15 1015.0 - 0.0 - Mostly clear 10 - - - -
26/03:30pm 26.5 N 12 16 1014.8 - 0.0 - Mostly clear 10 - - - -

Other Formats:

Comma delimited format used in spreadsheet applications
http://www.bom.gov.au/fwo/IDQ60701/IDQ60701.94578.axf

JavaScript Object Notation format (JSON) in row-major order
http://www.bom.gov.au/fwo/IDQ60701/IDQ60701.94578.json